sensor_id;sensor_type;location;lat;lon;timestamp;pressure;altitude;pressure_sealevel;temperature;humidity
65758;BME280;52495;52.208;5.158;2023-03-26T00:00:40;100626.72;;;8.52;100.00
65758;BME280;52495;52.208;5.158;2023-03-26T00:03:08;100617.28;;;8.51;100.00
65758;BME280;52495;52.208;5.158;2023-03-26T00:05:36;100625.00;;;8.51;100.00
65758;BME280;52495;52.208;5.158;2023-03-26T00:08:03;100612.97;;;8.52;100.00
65758;BME280;52495;52.208;5.158;2023-03-26T00:10:33;100618.13;;;8.53;100.00
65758;BME280;52495;52.208;5.158;2023-03-26T00:13:00;100616.44;;;8.52;100.00
65758;BME280;52495;52.208;5.158;2023-03-26T00:15:26;100606.13;;;8.52;100.00
65758;BME280;52495;52.208;5.158;2023-03-26T00:17:55;100615.53;;;8.55;100.00
65758;BME280;52495;52.208;5.158;2023-03-26T00:20:22;100611.25;;;8.54;100.00
65758;BME280;52495;52.208;5.158;2023-03-26T00:22:49;100613.81;;;8.54;100.00
65758;BME280;52495;52.208;5.158;2023-03-26T00:25:17;100608.72;;;8.52;100.00
65758;BME280;52495;52.208;5.158;2023-03-26T00:27:45;100605.28;;;8.48;100.00
65758;BME280;52495;52.208;5.158;2023-03-26T00:30:14;100609.56;;;8.49;100.00
65758;BME280;52495;52.208;5.158;2023-03-26T00:32:41;100609.59;;;8.48;100.00
65758;BME280;52495;52.208;5.158;2023-03-26T00:35:10;100608.75;;;8.46;100.00
65758;BME280;52495;52.208;5.158;2023-03-26T00:37:37;100608.78;;;8.44;100.00
65758;BME280;52495;52.208;5.158;2023-03-26T00:40:08;100601.88;;;8.45;100.00
65758;BME280;52495;52.208;5.158;2023-03-26T00:42:35;100601.97;;;8.37;100.00
65758;BME280;52495;52.208;5.158;2023-03-26T00:45:03;100590.84;;;8.35;100.00
65758;BME280;52495;52.208;5.158;2023-03-26T00:47:30;100591.75;;;8.32;100.00
65758;BME280;52495;52.208;5.158;2023-03-26T00:49:57;100584.06;;;8.29;100.00
65758;BME280;52495;52.208;5.158;2023-03-26T00:52:25;100592.66;;;8.28;100.00
65758;BME280;52495;52.208;5.158;2023-03-26T00:54:53;100581.53;;;8.26;100.00
65758;BME280;52495;52.208;5.158;2023-03-26T00:57:21;100589.28;;;8.25;100.00
65758;BME280;52495;52.208;5.158;2023-03-26T00:59:48;100585.00;;;8.22;100.00
65758;BME280;52495;52.208;5.158;2023-03-26T01:02:17;100582.50;;;8.19;100.00
65758;BME280;52495;52.208;5.158;2023-03-26T01:04:46;100575.63;;;8.16;100.00
65758;BME280;52495;52.208;5.158;2023-03-26T01:07:15;100565.38;;;8.15;100.00
65758;BME280;52495;52.208;5.158;2023-03-26T01:09:48;100570.59;;;8.09;100.00
65758;BME280;52495;52.208;5.158;2023-03-26T01:12:19;100569.75;;;8.07;100.00
65758;BME280;52495;52.208;5.158;2023-03-26T01:14:48;100566.34;;;8.06;100.00
65758;BME280;52495;52.208;5.158;2023-03-26T01:17:16;100569.78;;;8.05;100.00
65758;BME280;52495;52.208;5.158;2023-03-26T01:19:47;100556.03;;;8.09;100.00
65758;BME280;52495;52.208;5.158;2023-03-26T01:22:19;100557.66;;;8.13;100.00
65758;BME280;52495;52.208;5.158;2023-03-26T01:24:47;100544.97;;;8.02;100.00
65758;BME280;52495;52.208;5.158;2023-03-26T01:27:26;100539.75;;;8.05;100.00
65758;BME280;52495;52.208;5.158;2023-03-26T01:30:02;100531.19;;;8.07;100.00
65758;BME280;52495;52.208;5.158;2023-03-26T01:32:50;100531.25;;;8.02;100.00
65758;BME280;52495;52.208;5.158;2023-03-26T01:35:32;100536.50;;;7.93;100.00
65758;BME280;52495;52.208;5.158;2023-03-26T01:38:10;100530.53;;;7.89;100.00
65758;BME280;52495;52.208;5.158;2023-03-26T01:40:44;100521.94;;;7.90;100.00
65758;BME280;52495;52.208;5.158;2023-03-26T01:43:20;100520.25;;;7.90;100.00
65758;BME280;52495;52.208;5.158;2023-03-26T01:45:51;100521.09;;;7.88;100.00
65758;BME280;52495;52.208;5.158;2023-03-26T01:48:19;100527.94;;;7.89;100.00
65758;BME280;52495;52.208;5.158;2023-03-26T01:50:46;100509.13;;;7.88;100.00
65758;BME280;52495;52.208;5.158;2023-03-26T01:53:17;100502.25;;;7.89;100.00
65758;BME280;52495;52.208;5.158;2023-03-26T01:55:53;100503.97;;;7.87;100.00
65758;BME280;52495;52.208;5.158;2023-03-26T01:58:28;100501.41;;;7.87;100.00
65758;BME280;52495;52.208;5.158;2023-03-26T02:01:05;100495.47;;;7.85;100.00
65758;BME280;52495;52.208;5.158;2023-03-26T02:03:40;100494.56;;;7.86;100.00
65758;BME280;52495;52.208;5.158;2023-03-26T02:06:15;100494.56;;;7.86;100.00
65758;BME280;52495;52.208;5.158;2023-03-26T02:08:50;100493.72;;;7.85;100.00
65758;BME280;52495;52.208;5.158;2023-03-26T02:11:20;100495.47;;;7.83;100.00
65758;BME280;52495;52.208;5.158;2023-03-26T02:13:47;100492.91;;;7.80;100.00
65758;BME280;52495;52.208;5.158;2023-03-26T02:16:16;100484.44;;;7.75;100.00
65758;BME280;52495;52.208;5.158;2023-03-26T02:18:43;100488.72;;;7.74;100.00
65758;BME280;52495;52.208;5.158;2023-03-26T02:21:13;100487.06;;;7.69;100.00
65758;BME280;52495;52.208;5.158;2023-03-26T02:23:45;100479.38;;;7.66;100.00
65758;BME280;52495;52.208;5.158;2023-03-26T02:26:14;100472.53;;;7.65;100.00
65758;BME280;52495;52.208;5.158;2023-03-26T02:28:54;100469.03;;;7.72;100.00
65758;BME280;52495;52.208;5.158;2023-03-26T02:31:22;100467.25;;;7.79;100.00
65758;BME280;52495;52.208;5.158;2023-03-26T02:33:50;100460.47;;;7.73;100.00
65758;BME280;52495;52.208;5.158;2023-03-26T02:36:18;100462.16;;;7.75;100.00
65758;BME280;52495;52.208;5.158;2023-03-26T02:38:47;100453.53;;;7.80;100.00
65758;BME280;52495;52.208;5.158;2023-03-26T02:41:14;100444.09;;;7.82;100.00
65758;BME280;52495;52.208;5.158;2023-03-26T02:43:56;100444.84;;;7.88;100.00
65758;BME280;52495;52.208;5.158;2023-03-26T02:46:34;100450.81;;;7.92;100.00
65758;BME280;52495;52.208;5.158;2023-03-26T02:49:21;100447.34;;;7.96;100.00
65758;BME280;52495;52.208;5.158;2023-03-26T02:51:48;100449.00;;;7.99;100.00
65758;BME280;52495;52.208;5.158;2023-03-26T02:54:23;100444.69;;;8.02;100.00
65758;BME280;52495;52.208;5.158;2023-03-26T02:57:20;100438.66;;;8.03;100.00
65758;BME280;52495;52.208;5.158;2023-03-26T02:59:48;100436.06;;;8.05;100.00
65758;BME280;52495;52.208;5.158;2023-03-26T03:02:49;100440.31;;;8.08;100.00
65758;BME280;52495;52.208;5.158;2023-03-26T03:05:29;100437.72;;;8.11;100.00
65758;BME280;52495;52.208;5.158;2023-03-26T03:08:28;100439.44;;;8.10;100.00
65758;BME280;52495;52.208;5.158;2023-03-26T03:11:07;100434.31;;;8.10;100.00
65758;BME280;52495;52.208;5.158;2023-03-26T03:13:43;100433.41;;;8.13;100.00
65758;BME280;52495;52.208;5.158;2023-03-26T03:16:15;100437.69;;;8.12;100.00
65758;BME280;52495;52.208;5.158;2023-03-26T03:18:43;100426.56;;;8.12;100.00
65758;BME280;52495;52.208;5.158;2023-03-26T03:21:10;100433.41;;;8.13;100.00
65758;BME280;52495;52.208;5.158;2023-03-26T03:23:37;100427.34;;;8.17;100.00
65758;BME280;52495;52.208;5.158;2023-03-26T03:26:15;100413.59;;;8.19;100.00
65758;BME280;52495;52.208;5.158;2023-03-26T03:28:48;100419.53;;;8.23;100.00
65758;BME280;52495;52.208;5.158;2023-03-26T03:31:17;100420.34;;;8.27;100.00
65758;BME280;52495;52.208;5.158;2023-03-26T03:33:46;100409.13;;;8.31;100.00
65758;BME280;52495;52.208;5.158;2023-03-26T03:36:15;100410.84;;;8.33;100.00
65758;BME280;52495;52.208;5.158;2023-03-26T03:38:44;100405.66;;;8.37;100.00
65758;BME280;52495;52.208;5.158;2023-03-26T03:41:15;100390.25;;;8.33;100.00
65758;BME280;52495;52.208;5.158;2023-03-26T03:43:44;100404.69;;;8.41;100.00
65758;BME280;52495;52.208;5.158;2023-03-26T03:46:20;100393.53;;;8.42;100.00
65758;BME280;52495;52.208;5.158;2023-03-26T03:48:48;100402.09;;;8.45;100.00
65758;BME280;52495;52.208;5.158;2023-03-26T03:51:19;100402.88;;;8.47;100.00
65758;BME280;52495;52.208;5.158;2023-03-26T03:53:49;100396.91;;;8.48;100.00
65758;BME280;52495;52.208;5.158;2023-03-26T03:56:28;100396.91;;;8.48;100.00
65758;BME280;52495;52.208;5.158;2023-03-26T03:59:21;100397.72;;;8.52;100.00
65758;BME280;52495;52.208;5.158;2023-03-26T04:01:49;100389.13;;;8.52;100.00
65758;BME280;52495;52.208;5.158;2023-03-26T04:04:37;100394.19;;;8.56;100.00
65758;BME280;52495;52.208;5.158;2023-03-26T04:07:09;100384.78;;;8.57;100.00
65758;BME280;52495;52.208;5.158;2023-03-26T04:09:59;100378.72;;;8.59;100.00
65758;BME280;52495;52.208;5.158;2023-03-26T04:12:34;100382.97;;;8.62;100.00
65758;BME280;52495;52.208;5.158;2023-03-26T04:15:03;100382.06;;;8.64;100.00
65758;BME280;52495;52.208;5.158;2023-03-26T04:17:32;100376.88;;;8.66;100.00
65758;BME280;52495;52.208;5.158;2023-03-26T04:20:09;100369.13;;;8.69;100.00
65758;BME280;52495;52.208;5.158;2023-03-26T04:22:39;100361.41;;;8.69;100.00
65758;BME280;52495;52.208;5.158;2023-03-26T04:25:08;100357.16;;;8.67;100.00
65758;BME280;52495;52.208;5.158;2023-03-26T04:28:02;100345.97;;;8.69;100.00
65758;BME280;52495;52.208;5.158;2023-03-26T04:30:49;100354.56;;;8.68;100.00
65758;BME280;52495;52.208;5.158;2023-03-26T04:33:33;100341.72;;;8.67;100.00
65758;BME280;52495;52.208;5.158;2023-03-26T04:36:01;100341.69;;;8.68;100.00
65758;BME280;52495;52.208;5.158;2023-03-26T04:38:33;100330.56;;;8.68;100.00
65758;BME280;52495;52.208;5.158;2023-03-26T04:41:03;100330.56;;;8.68;100.00
65758;BME280;52495;52.208;5.158;2023-03-26T04:43:50;100327.16;;;8.65;100.00
65758;BME280;52495;52.208;5.158;2023-03-26T04:46:32;100328.84;;;8.67;100.00
65758;BME280;52495;52.208;5.158;2023-03-26T04:49:27;100316.00;;;8.67;100.00
65758;BME280;52495;52.208;5.158;2023-03-26T04:51:54;100310.84;;;8.67;100.00
65758;BME280;52495;52.208;5.158;2023-03-26T04:54:40;100307.34;;;8.69;100.00
65758;BME280;52495;52.208;5.158;2023-03-26T04:57:15;100311.66;;;8.69;100.00
65758;BME280;52495;52.208;5.158;2023-03-26T04:59:54;100307.34;;;8.69;100.00
65758;BME280;52495;52.208;5.158;2023-03-26T05:02:21;100303.94;;;8.67;100.00
65758;BME280;52495;52.208;5.158;2023-03-26T05:04:54;100298.13;;;8.59;100.00
65758;BME280;52495;52.208;5.158;2023-03-26T05:07:24;100298.94;;;8.59;100.00
65758;BME280;52495;52.208;5.158;2023-03-26T05:09:54;100293.00;;;8.56;100.00
65758;BME280;52495;52.208;5.158;2023-03-26T05:12:42;100293.88;;;8.55;100.00
65758;BME280;52495;52.208;5.158;2023-03-26T05:15:14;100282.72;;;8.56;100.00
65758;BME280;52495;52.208;5.158;2023-03-26T05:17:53;100287.03;;;8.54;100.00
65758;BME280;52495;52.208;5.158;2023-03-26T05:20:36;100287.88;;;8.54;100.00
65758;BME280;52495;52.208;5.158;2023-03-26T05:23:05;100287.88;;;8.54;100.00
65758;BME280;52495;52.208;5.158;2023-03-26T05:25:38;100282.69;;;8.59;100.00
65758;BME280;52495;52.208;5.158;2023-03-26T05:28:13;100287.00;;;8.57;100.00
65758;BME280;52495;52.208;5.158;2023-03-26T05:30:49;100282.81;;;8.49;100.00
65758;BME280;52495;52.208;5.158;2023-03-26T05:33:17;100281.13;;;8.47;100.00
65758;BME280;52495;52.208;5.158;2023-03-26T05:35:59;100275.00;;;8.54;100.00
65758;BME280;52495;52.208;5.158;2023-03-26T05:38:28;100273.25;;;8.56;100.00
65758;BME280;52495;52.208;5.158;2023-03-26T05:40:58;100270.84;;;8.48;100.00
65758;BME280;52495;52.208;5.158;2023-03-26T05:43:25;100262.28;;;8.45;100.00
65758;BME280;52495;52.208;5.158;2023-03-26T05:46:07;100263.22;;;8.42;100.00
65758;BME280;52495;52.208;5.158;2023-03-26T05:48:34;100258.03;;;8.44;100.00
65758;BME280;52495;52.208;5.158;2023-03-26T05:51:04;100258.88;;;8.44;100.00
65758;BME280;52495;52.208;5.158;2023-03-26T05:53:32;100262.28;;;8.45;100.00
65758;BME280;52495;52.208;5.158;2023-03-26T05:56:33;100256.25;;;8.49;100.00
65758;BME280;52495;52.208;5.158;2023-03-26T05:59:19;100254.50;;;8.51;100.00
65758;BME280;52495;52.208;5.158;2023-03-26T06:02:05;100249.28;;;8.54;100.00
65758;BME280;52495;52.208;5.158;2023-03-26T06:05:01;100248.41;;;8.55;100.00
65758;BME280;52495;52.208;5.158;2023-03-26T06:07:41;100256.81;;;8.65;100.00
65758;BME280;52495;52.208;5.158;2023-03-26T06:10:13;100250.00;;;8.62;100.00
65758;BME280;52495;52.208;5.158;2023-03-26T06:12:40;100239.72;;;8.62;100.00
65758;BME280;52495;52.208;5.158;2023-03-26T06:15:08;100234.72;;;8.55;100.00
65758;BME280;52495;52.208;5.158;2023-03-26T06:18:04;100236.50;;;8.49;100.00
65758;BME280;52495;52.208;5.158;2023-03-26T06:20:54;100232.91;;;8.58;100.00
65758;BME280;52495;52.208;5.158;2023-03-26T06:23:40;100225.34;;;8.50;100.00
65758;BME280;52495;52.208;5.158;2023-03-26T06:26:27;100221.06;;;8.51;100.00
65758;BME280;52495;52.208;5.158;2023-03-26T06:29:08;100213.38;;;8.46;100.00
65758;BME280;52495;52.208;5.158;2023-03-26T06:31:50;100222.00;;;8.44;100.00
65758;BME280;52495;52.208;5.158;2023-03-26T06:34:20;100219.31;;;8.52;100.00
65758;BME280;52495;52.208;5.158;2023-03-26T06:36:47;100219.28;;;8.55;100.00
65758;BME280;52495;52.208;5.158;2023-03-26T06:39:19;100220.25;;;8.49;100.00
65758;BME280;52495;52.208;5.158;2023-03-26T06:41:55;100220.97;;;8.56;100.00
65758;BME280;52495;52.208;5.158;2023-03-26T06:44:42;100225.09;;;8.63;100.00
65758;BME280;52495;52.208;5.158;2023-03-26T06:47:27;100215.84;;;8.54;100.00
65758;BME280;52495;52.208;5.158;2023-03-26T06:50:17;100219.31;;;8.53;100.00
65758;BME280;52495;52.208;5.158;2023-03-26T06:53:10;100230.41;;;8.55;100.00
65758;BME280;52495;52.208;5.158;2023-03-26T06:56:11;100229.56;;;8.55;100.00
65758;BME280;52495;52.208;5.158;2023-03-26T06:58:57;100221.88;;;8.53;100.00
65758;BME280;52495;52.208;5.158;2023-03-26T07:01:55;100228.59;;;8.60;100.00
65758;BME280;52495;52.208;5.158;2023-03-26T07:04:40;100226.88;;;8.61;100.00
65758;BME280;52495;52.208;5.158;2023-03-26T07:07:26;100226.13;;;8.56;100.00
65758;BME280;52495;52.208;5.158;2023-03-26T07:10:28;100219.09;;;8.64;100.00
65758;BME280;52495;52.208;5.158;2023-03-26T07:13:09;100223.41;;;8.63;100.00
65758;BME280;52495;52.208;5.158;2023-03-26T07:15:59;100219.16;;;8.61;100.00
65758;BME280;52495;52.208;5.158;2023-03-26T07:18:51;100220.91;;;8.59;100.00
65758;BME280;52495;52.208;5.158;2023-03-26T07:21:22;100221.41;;;8.78;100.00
65758;BME280;52495;52.208;5.158;2023-03-26T07:23:51;100212.84;;;8.77;100.00
65758;BME280;52495;52.208;5.158;2023-03-26T07:26:29;100214.69;;;8.71;100.00
65758;BME280;52495;52.208;5.158;2023-03-26T07:29:33;100218.25;;;8.63;100.00
65758;BME280;52495;52.208;5.158;2023-03-26T07:32:24;100213.16;;;8.60;100.00
65758;BME280;52495;52.208;5.158;2023-03-26T07:35:19;100206.50;;;8.50;100.00
65758;BME280;52495;52.208;5.158;2023-03-26T07:38:18;100206.50;;;8.50;100.00
65758;BME280;52495;52.208;5.158;2023-03-26T07:41:03;100219.47;;;8.42;100.00
65758;BME280;52495;52.208;5.158;2023-03-26T07:44:06;100211.03;;;8.35;100.00
65758;BME280;52495;52.208;5.158;2023-03-26T07:47:01;100215.16;;;8.43;100.00
65758;BME280;52495;52.208;5.158;2023-03-26T07:49:53;100213.53;;;8.39;100.00
65758;BME280;52495;52.208;5.158;2023-03-26T07:52:33;100215.91;;;8.51;100.00
65758;BME280;52495;52.208;5.158;2023-03-26T07:55:32;100210.06;;;8.40;100.00
65758;BME280;52495;52.208;5.158;2023-03-26T07:58:35;100203.31;;;8.34;100.00
65758;BME280;52495;52.208;5.158;2023-03-26T08:01:37;100207.59;;;8.35;100.00
65758;BME280;52495;52.208;5.158;2023-03-26T08:04:35;100211.03;;;8.35;100.00
65758;BME280;52495;52.208;5.158;2023-03-26T08:07:32;100205.16;;;8.27;100.00
65758;BME280;52495;52.208;5.158;2023-03-26T08:10:34;100205.06;;;8.33;100.00
65758;BME280;52495;52.208;5.158;2023-03-26T08:13:17;100204.00;;;8.44;100.00
65758;BME280;52495;52.208;5.158;2023-03-26T08:15:51;100206.75;;;8.34;100.00
65758;BME280;52495;52.208;5.158;2023-03-26T08:18:30;100202.22;;;8.49;100.00
65758;BME280;52495;52.208;5.158;2023-03-26T08:21:02;100206.31;;;8.59;100.00
65758;BME280;52495;52.208;5.158;2023-03-26T08:23:34;100205.69;;;8.45;100.00
65758;BME280;52495;52.208;5.158;2023-03-26T08:26:08;100204.03;;;8.42;100.00
65758;BME280;52495;52.208;5.158;2023-03-26T08:28:48;100206.53;;;8.47;100.00
65758;BME280;52495;52.208;5.158;2023-03-26T08:31:17;100201.47;;;8.41;100.00
65758;BME280;52495;52.208;5.158;2023-03-26T08:33:49;100209.09;;;8.48;100.00
65758;BME280;52495;52.208;5.158;2023-03-26T08:36:17;100204.66;;;8.55;100.00
65758;BME280;52495;52.208;5.158;2023-03-26T08:38:44;100214.84;;;8.61;100.00
65758;BME280;52495;52.208;5.158;2023-03-26T08:47:59;100208.28;;;8.45;100.00
65758;BME280;52495;52.208;5.158;2023-03-26T08:57:39;100216.00;;;8.45;100.00
65758;BME280;52495;52.208;5.158;2023-03-26T09:00:16;100218.53;;;8.48;100.00
65758;BME280;52495;52.208;5.158;2023-03-26T09:03:09;100218.75;;;8.35;100.00
65758;BME280;52495;52.208;5.158;2023-03-26T09:06:12;100220.25;;;8.46;100.00
65758;BME280;52495;52.208;5.158;2023-03-26T09:09:04;100213.19;;;8.59;100.00
65758;BME280;52495;52.208;5.158;2023-03-26T09:15:08;100222.06;;;8.42;100.00
65758;BME280;52495;52.208;5.158;2023-03-26T09:20:51;100221.19;;;8.43;100.00
65758;BME280;52495;52.208;5.158;2023-03-26T09:26:24;100221.94;;;8.50;100.00
65758;BME280;52495;52.208;5.158;2023-03-26T09:29:25;100227.09;;;8.47;100.00
65758;BME280;52495;52.208;5.158;2023-03-26T09:32:38;100225.25;;;8.57;99.96
65758;BME280;52495;52.208;5.158;2023-03-26T09:35:12;100222.00;;;8.44;100.00
65758;BME280;52495;52.208;5.158;2023-03-26T09:37:55;100226.25;;;8.48;100.00
65758;BME280;52495;52.208;5.158;2023-03-26T09:40:31;100231.22;;;8.57;100.00
65758;BME280;52495;52.208;5.158;2023-03-26T09:43:18;100230.34;;;8.58;99.12
65758;BME280;52495;52.208;5.158;2023-03-26T09:45:56;100223.06;;;8.33;100.00
65758;BME280;52495;52.208;5.158;2023-03-26T09:48:49;100228.03;;;8.43;100.00
65758;BME280;52495;52.208;5.158;2023-03-26T09:51:33;100225.28;;;8.54;98.89
65758;BME280;52495;52.208;5.158;2023-03-26T09:54:19;100228.03;;;8.43;99.24
65758;BME280;52495;52.208;5.158;2023-03-26T09:56:57;100227.94;;;8.47;99.66
65758;BME280;52495;52.208;5.158;2023-03-26T09:59:50;100238.09;;;8.57;99.45
65758;BME280;52495;52.208;5.158;2023-03-26T10:02:41;100239.91;;;8.52;98.76
65758;BME280;52495;52.208;5.158;2023-03-26T10:05:30;100241.66;;;8.49;97.85
65758;BME280;52495;52.208;5.158;2023-03-26T10:08:22;100248.56;;;8.46;98.58
65758;BME280;52495;52.208;5.158;2023-03-26T10:10:56;100245.81;;;8.57;96.06
65758;BME280;52495;52.208;5.158;2023-03-26T10:13:32;100251.13;;;8.49;97.33
65758;BME280;52495;52.208;5.158;2023-03-26T10:16:15;100249.38;;;8.49;95.89
65758;BME280;52495;52.208;5.158;2023-03-26T10:18:58;100254.69;;;8.39;95.78
65758;BME280;52495;52.208;5.158;2023-03-26T10:21:37;100258.78;;;8.52;94.55
65758;BME280;52495;52.208;5.158;2023-03-26T10:24:31;100254.63;;;8.43;95.44
65758;BME280;52495;52.208;5.158;2023-03-26T10:27:22;100261.34;;;8.52;95.46
65758;BME280;52495;52.208;5.158;2023-03-26T10:30:06;100256.94;;;8.57;95.07
65758;BME280;52495;52.208;5.158;2023-03-26T10:32:45;100265.41;;;8.64;94.40
65758;BME280;52495;52.208;5.158;2023-03-26T10:35:26;100267.06;;;8.68;92.34
65758;BME280;52495;52.208;5.158;2023-03-26T10:38:12;100264.91;;;8.42;92.35
65758;BME280;52495;52.208;5.158;2023-03-26T10:40:46;100273.69;;;8.31;94.03
65758;BME280;52495;52.208;5.158;2023-03-26T10:46:40;100273.31;;;8.55;91.87
65758;BME280;52495;52.208;5.158;2023-03-26T10:49:40;100282.72;;;8.56;91.45
65758;BME280;52495;52.208;5.158;2023-03-26T10:52:16;100277.56;;;8.56;91.35
65758;BME280;52495;52.208;5.158;2023-03-26T10:54:53;100276.94;;;8.40;90.59
65758;BME280;52495;52.208;5.158;2023-03-26T10:57:32;100287.09;;;8.47;90.87
65758;BME280;52495;52.208;5.158;2023-03-26T11:00:12;100287.16;;;8.46;91.38
65758;BME280;52495;52.208;5.158;2023-03-26T11:02:45;100281.84;;;8.55;89.90
65758;BME280;52495;52.208;5.158;2023-03-26T11:05:38;100286.34;;;8.42;91.05
65758;BME280;52495;52.208;5.158;2023-03-26T11:08:14;100281.16;;;8.45;91.51
65758;BME280;52495;52.208;5.158;2023-03-26T11:10:49;100296.63;;;8.44;92.86
65758;BME280;52495;52.208;5.158;2023-03-26T11:13:24;100297.59;;;8.37;93.95
65758;BME280;52495;52.208;5.158;2023-03-26T11:15:59;100294.81;;;8.50;91.77
65758;BME280;52495;52.208;5.158;2023-03-26T11:18:34;100301.72;;;8.47;92.73
65758;BME280;52495;52.208;5.158;2023-03-26T11:21:08;100300.88;;;8.48;92.66
65758;BME280;52495;52.208;5.158;2023-03-26T11:23:41;100301.56;;;8.56;91.42
65758;BME280;52495;52.208;5.158;2023-03-26T11:26:16;100304.28;;;8.48;89.43
65758;BME280;52495;52.208;5.158;2023-03-26T11:28:58;100303.41;;;8.46;88.87
65758;BME280;52495;52.208;5.158;2023-03-26T11:31:37;100302.66;;;8.41;88.49
65758;BME280;52495;52.208;5.158;2023-03-26T11:34:12;100312.88;;;8.46;88.25
65758;BME280;52495;52.208;5.158;2023-03-26T11:36:45;100307.78;;;8.43;88.72
65758;BME280;52495;52.208;5.158;2023-03-26T11:39:15;100319.63;;;8.55;87.14
65758;BME280;52495;52.208;5.158;2023-03-26T11:41:46;100322.97;;;8.58;87.05
65758;BME280;52495;52.208;5.158;2023-03-26T11:44:29;100329.72;;;8.64;85.69
65758;BME280;52495;52.208;5.158;2023-03-26T11:47:02;100314.28;;;8.64;84.89
65758;BME280;52495;52.208;5.158;2023-03-26T11:49:31;100318.34;;;8.79;83.36
65758;BME280;52495;52.208;5.158;2023-03-26T11:51:58;100321.59;;;8.89;82.17
65758;BME280;52495;52.208;5.158;2023-03-26T11:54:27;100322.41;;;8.91;81.39
65758;BME280;52495;52.208;5.158;2023-03-26T11:56:59;100326.63;;;8.95;82.49
65758;BME280;52495;52.208;5.158;2023-03-26T11:59:32;100324.75;;;9.03;82.83
65758;BME280;52495;52.208;5.158;2023-03-26T12:02:17;100322.66;;;9.22;81.13
65758;BME280;52495;52.208;5.158;2023-03-26T12:04:50;100332.00;;;9.26;80.25
65758;BME280;52495;52.208;5.158;2023-03-26T12:07:22;100331.78;;;9.39;77.86
65758;BME280;52495;52.208;5.158;2023-03-26T12:09:53;100330.81;;;9.43;78.73
65758;BME280;52495;52.208;5.158;2023-03-26T12:12:23;100335.13;;;9.43;78.02
65758;BME280;52495;52.208;5.158;2023-03-26T12:14:51;100330.75;;;9.46;78.27
65758;BME280;52495;52.208;5.158;2023-03-26T12:17:28;100333.16;;;9.55;78.09
65758;BME280;52495;52.208;5.158;2023-03-26T12:19:56;100344.72;;;9.77;75.88
65758;BME280;52495;52.208;5.158;2023-03-26T12:22:32;100345.72;;;9.71;74.40
65758;BME280;52495;52.208;5.158;2023-03-26T12:25:03;100342.44;;;9.63;73.54
65758;BME280;52495;52.208;5.158;2023-03-26T12:27:43;100343.53;;;9.52;75.02
65758;BME280;52495;52.208;5.158;2023-03-26T12:30:19;100345.78;;;9.66;74.24
65758;BME280;52495;52.208;5.158;2023-03-26T12:32:48;100350.88;;;9.71;73.10
65758;BME280;52495;52.208;5.158;2023-03-26T12:35:17;100355.06;;;9.75;73.39
65758;BME280;52495;52.208;5.158;2023-03-26T12:37:46;100365.59;;;9.66;71.75
65758;BME280;52495;52.208;5.158;2023-03-26T12:40:28;100367.16;;;9.73;71.68
65758;BME280;52495;52.208;5.158;2023-03-26T12:42:58;100367.22;;;9.70;72.07
65758;BME280;52495;52.208;5.158;2023-03-26T12:45:29;100370.75;;;9.66;71.75
65758;BME280;52495;52.208;5.158;2023-03-26T12:47:57;100377.59;;;9.65;74.07
65758;BME280;52495;52.208;5.158;2023-03-26T12:50:30;100374.78;;;9.78;73.17
65758;BME280;52495;52.208;5.158;2023-03-26T12:53:27;100373.75;;;9.85;72.12
65758;BME280;52495;52.208;5.158;2023-03-26T12:56:07;100375.44;;;9.87;71.66
65758;BME280;52495;52.208;5.158;2023-03-26T12:58:51;100368.59;;;9.86;72.29
65758;BME280;52495;52.208;5.158;2023-03-26T13:01:30;100376.97;;;9.96;71.15
65758;BME280;52495;52.208;5.158;2023-03-26T13:04:13;100374.63;;;9.84;69.30
65758;BME280;52495;52.208;5.158;2023-03-26T13:06:46;100384.84;;;9.90;68.31
65758;BME280;52495;52.208;5.158;2023-03-26T13:09:26;100388.50;;;9.80;66.43
65758;BME280;52495;52.208;5.158;2023-03-26T13:12:07;100382.75;;;9.65;68.15
65758;BME280;52495;52.208;5.158;2023-03-26T13:15:01;100394.56;;;9.77;66.72
65758;BME280;52495;52.208;5.158;2023-03-26T13:17:34;100391.25;;;9.72;67.55
65758;BME280;52495;52.208;5.158;2023-03-26T13:20:10;100399.66;;;9.80;68.25
65758;BME280;52495;52.208;5.158;2023-03-26T13:22:49;100406.66;;;9.74;67.27
65758;BME280;52495;52.208;5.158;2023-03-26T13:25:28;100409.34;;;9.69;67.84
65758;BME280;52495;52.208;5.158;2023-03-26T13:28:05;100411.09;;;9.67;67.50
65758;BME280;52495;52.208;5.158;2023-03-26T13:30:42;100411.13;;;9.65;68.15
65758;BME280;52495;52.208;5.158;2023-03-26T13:33:32;100417.06;;;9.69;67.44
65758;BME280;52495;52.208;5.158;2023-03-26T13:36:06;100412.66;;;9.74;66.42
65758;BME280;52495;52.208;5.158;2023-03-26T13:38:44;100418.78;;;9.68;66.30
65758;BME280;52495;52.208;5.158;2023-03-26T13:41:21;100423.13;;;9.68;66.51
65758;BME280;52495;52.208;5.158;2023-03-26T13:43:58;100419.66;;;9.67;65.57
65758;BME280;52495;52.208;5.158;2023-03-26T13:46:33;100430.19;;;9.58;66.21
65758;BME280;52495;52.208;5.158;2023-03-26T13:49:03;100419.88;;;9.56;65.63
65758;BME280;52495;52.208;5.158;2023-03-26T13:51:39;100437.81;;;9.64;65.83
65758;BME280;52495;52.208;5.158;2023-03-26T13:54:14;100424.16;;;9.57;64.04
65758;BME280;52495;52.208;5.158;2023-03-26T13:56:46;100443.50;;;9.35;65.12
65758;BME280;52495;52.208;5.158;2023-03-26T13:59:18;100434.88;;;9.37;65.99
65758;BME280;52495;52.208;5.158;2023-03-26T14:01:52;100439.09;;;9.41;65.35
65758;BME280;52495;52.208;5.158;2023-03-26T14:04:24;100435.44;;;9.52;65.19
65758;BME280;52495;52.208;5.158;2023-03-26T14:07:02;100449.94;;;9.57;65.02
65758;BME280;52495;52.208;5.158;2023-03-26T14:09:36;100454.41;;;9.49;63.18
65758;BME280;52495;52.208;5.158;2023-03-26T14:12:20;100448.47;;;9.44;63.52